Venice, Italy
Current Conditions -  °F | °C
As of 1:50 AM on Monday 24 Nov 2014 (Local Time) from LIPZ Reporting Station
Moderate Fog Moderate Fog  
Wind Chill: 41°   Ceiling: Unl
Heat Index: 41°   Visibility: 0.31mi
Dew Point: 39°   Wind: 2mph
Humidity: 93%   Direction: NA
Pressure: 30.27"   Gusts: NA
Location:  45.43°N, 12.34°E
Report Text: LIPZ 240050Z VRB02KT 0500 R04R/0200N FG NSC 05/04 Q1025
Loading
Personal Weather Stations






























Interactive Weather Map New forecast layout! Learn more

10-Day Weather Forecast

Advertisements
Track Severe Weather on mobile